Time;durP1;ratioP1;P1;durP2;ratioP2;P2;SDS_P1;SDS_P2;PMS_P1;PMS_P2;Temp;Humidity;BMP_temperature;BMP_pressure;BME280_temperature;BME280_humidity;BME280_pressure;Samples;Min_cycle;Max_cycle;Signal;HPM_P1;HPM_P2
2022/04/30 00:02:13;;;;;;;;;36.00;31.25;;;;;;;;5053058;28;45333;-70
2022/04/30 00:04:42;;;;;;;;;31.25;30.50;;;;;;;;5039553;28;45449;-71
2022/04/30 00:07:08;;;;;;;;;35.75;31.50;;;;;;;;5052991;28;45528;-71
2022/04/30 00:09:34;;;;;;;;;32.00;28.25;;;;;;;;5053082;28;45492;-70
2022/04/30 00:12:00;;;;;;;;;42.00;33.75;;;;;;;;5054409;28;45418;-70
2022/04/30 00:14:25;;;;;;;;;36.25;32.75;;;;;;;;5053515;28;45359;-69
2022/04/30 00:16:51;;;;;;;;;28.00;28.00;;;;;;;;5053051;28;47520;-69
2022/04/30 00:19:16;;;;;;;;;33.00;29.75;;;;;;;;5053144;28;45504;-70
2022/04/30 00:21:41;;;;;;;;;35.75;31.25;;;;;;;;5053084;28;45506;-69
2022/04/30 00:24:07;;;;;;;;;37.00;31.50;;;;;;;;5054121;28;45292;-71
2022/04/30 00:26:32;;;;;;;;;38.00;30.50;;;;;;;;5054318;28;45383;-70
2022/04/30 00:28:57;;;;;;;;;37.50;32.75;;;;;;;;5051607;28;45887;-69
2022/04/30 00:31:24;;;;;;;;;31.75;29.75;;;;;;;;5039262;28;45317;-71
2022/04/30 00:33:49;;;;;;;;;38.00;30.25;;;;;;;;5053372;28;45280;-68
2022/04/30 00:36:15;;;;;;;;;34.75;32.50;;;;;;;;5053501;28;45560;-70
2022/04/30 00:38:41;;;;;;;;;35.25;32.00;;;;;;;;5054814;28;47091;-70
2022/04/30 00:41:06;;;;;;;;;35.00;30.00;;;;;;;;5052879;28;45577;-69
2022/04/30 00:43:41;;;;;;;;;36.00;31.25;;;;;;;;5052167;28;45384;-69
2022/04/30 00:46:10;;;;;;;;;36.50;32.00;;;;;;;;5052829;28;45506;-70
2022/04/30 00:48:36;;;;;;;;;33.50;31.25;;;;;;;;5052918;28;45476;-70
2022/04/30 00:51:01;;;;;;;;;34.75;30.75;;;;;;;;5054454;28;45347;-70
2022/04/30 00:53:26;;;;;;;;;31.75;26.00;;;;;;;;5053526;28;45462;-70
2022/04/30 00:55:53;;;;;;;;;38.75;34.25;;;;;;;;5054027;28;45467;-70
2022/04/30 00:58:20;;;;;;;;;37.25;31.50;;;;;;;;5055590;28;46094;-71
2022/04/30 01:00:47;;;;;;;;;46.00;34.00;;;;;;;;5056337;28;45462;-70
2022/04/30 01:03:12;;;;;;;;;38.50;33.50;;;;;;;;5056673;28;45372;-70
2022/04/30 01:05:37;;;;;;;;;39.75;33.25;;;;;;;;5058133;28;45336;-71
2022/04/30 01:08:02;;;;;;;;;33.25;30.75;;;;;;;;5055736;28;46208;-70
2022/04/30 01:10:28;;;;;;;;;43.50;33.50;;;;;;;;5055864;28;45569;-70
2022/04/30 01:12:53;;;;;;;;;39.25;34.50;;;;;;;;5055681;28;45581;-68
2022/04/30 01:15:19;;;;;;;;;41.00;32.25;;;;;;;;5056068;28;45360;-69
2022/04/30 01:17:45;;;;;;;;;39.50;33.25;;;;;;;;5057623;28;46425;-69
2022/04/30 01:20:10;;;;;;;;;43.25;34.50;;;;;;;;5055788;28;45619;-70
2022/04/30 01:22:47;;;;;;;;;40.00;32.75;;;;;;;;5055368;28;45645;-70
2022/04/30 01:25:12;;;;;;;;;44.00;35.75;;;;;;;;5040441;28;45480;-69
2022/04/30 01:27:37;;;;;;;;;37.00;31.00;;;;;;;;5055016;28;46024;-70
2022/04/30 01:30:03;;;;;;;;;38.50;32.75;;;;;;;;5056921;28;45463;-70
2022/04/30 01:37:56;;;;;;;;;36.00;30.25;;;;;;;;5055413;28;45481;-70
2022/04/30 01:40:21;;;;;;;;;39.75;33.50;;;;;;;;5055553;28;45354;-69
2022/04/30 01:42:47;;;;;;;;;39.00;33.00;;;;;;;;5055475;28;45397;-69
2022/04/30 01:45:14;;;;;;;;;44.25;34.00;;;;;;;;5056477;28;45317;-70
2022/04/30 01:47:40;;;;;;;;;42.50;33.25;;;;;;;;5057156;28;47331;-70
2022/04/30 01:50:05;;;;;;;;;31.75;30.00;;;;;;;;5055488;28;45292;-70
2022/04/30 01:52:31;;;;;;;;;40.25;33.00;;;;;;;;5055674;28;45377;-69
2022/04/30 01:54:56;;;;;;;;;38.25;33.75;;;;;;;;5055556;28;45472;-70
2022/04/30 01:57:26;;;;;;;;;32.75;30.75;;;;;;;;5054948;28;45486;-70
2022/04/30 02:00:01;;;;;;;;;32.50;31.00;;;;;;;;5057042;28;45350;-69
2022/04/30 02:02:27;;;;;;;;;42.25;33.25;;;;;;;;5053945;28;45465;-69
2022/04/30 02:04:54;;;;;;;;;37.00;32.25;;;;;;;;5055139;28;45412;-69
2022/04/30 02:07:20;;;;;;;;;36.25;31.25;;;;;;;;5054362;28;45597;-69
2022/04/30 02:09:46;;;;;;;;;35.75;32.50;;;;;;;;5054448;28;45283;-69
2022/04/30 02:12:12;;;;;;;;;34.50;31.25;;;;;;;;5055254;28;45599;-70
2022/04/30 02:14:39;;;;;;;;;29.25;28.75;;;;;;;;5057159;28;45309;-69
2022/04/30 02:17:06;;;;;;;;;35.50;32.25;;;;;;;;5054695;28;46492;-69
2022/04/30 02:20:18;;;;;;;;;33.25;31.00;;;;;;;;5054811;28;45351;-70
2022/04/30 02:22:18;;;;;;;;;32.50;30.75;;;;;;;;5054483;28;47103;-70
2022/04/30 02:24:45;;;;;;;;;38.50;33.75;;;;;;;;5054753;28;45524;-71
2022/04/30 02:27:11;;;;;;;;;39.25;31.25;;;;;;;;5054575;28;47059;-70
2022/04/30 02:29:37;;;;;;;;;38.25;32.75;;;;;;;;5056484;28;45484;-70
2022/04/30 02:32:03;;;;;;;;;35.25;32.75;;;;;;;;5054817;28;45446;-70
2022/04/30 02:34:28;;;;;;;;;37.25;33.00;;;;;;;;5054755;28;45304;-70
2022/04/30 02:36:53;;;;;;;;;36.00;32.25;;;;;;;;5054895;28;46350;-70
2022/04/30 02:39:18;;;;;;;;;37.50;33.50;;;;;;;;5054658;28;45386;-71
2022/04/30 02:41:44;;;;;;;;;34.25;32.50;;;;;;;;5056667;28;45383;-70
2022/04/30 02:44:09;;;;;;;;;30.25;25.75;;;;;;;;5054486;28;45518;-70
2022/04/30 02:46:34;;;;;;;;;33.25;31.25;;;;;;;;5054044;28;45296;-70
2022/04/30 02:48:59;;;;;;;;;35.25;31.50;;;;;;;;5053006;28;45277;-70
2022/04/30 02:51:24;;;;;;;;;34.75;31.75;;;;;;;;5054169;28;45401;-70
2022/04/30 02:53:50;;;;;;;;;37.50;31.00;;;;;;;;5055732;28;45491;-70
2022/04/30 02:56:16;;;;;;;;;32.00;27.00;;;;;;;;5054175;28;46938;-70
2022/04/30 03:01:25;;;;;;;;;37.75;31.50;;;;;;;;5054117;28;45451;-70
2022/04/30 03:03:50;;;;;;;;;40.00;33.50;;;;;;;;5054374;28;45434;-70
2022/04/30 03:06:17;;;;;;;;;39.75;33.50;;;;;;;;5037535;28;47046;-70
2022/04/30 03:08:45;;;;;;;;;33.00;31.25;;;;;;;;5055738;28;45490;-70
2022/04/30 03:11:12;;;;;;;;;35.75;30.25;;;;;;;;5054265;28;45470;-70
2022/04/30 03:13:37;;;;;;;;;37.50;31.75;;;;;;;;5054277;28;45441;-70
2022/04/30 03:21:42;;;;;;;;;39.25;32.00;;;;;;;;5039141;28;45348;-70
2022/04/30 03:24:07;;;;;;;;;33.00;30.50;;;;;;;;5054244;28;45435;-70
2022/04/30 03:26:33;;;;;;;;;37.75;33.25;;;;;;;;5054862;28;45816;-70
2022/04/30 03:28:58;;;;;;;;;33.75;31.00;;;;;;;;5053856;28;45770;-70
2022/04/30 03:31:23;;;;;;;;;48.50;36.75;;;;;;;;5053998;28;45510;-70
2022/04/30 03:33:50;;;;;;;;;40.75;32.75;;;;;;;;5053808;28;45423;-70
2022/04/30 03:36:17;;;;;;;;;39.25;31.00;;;;;;;;5053680;28;46012;-70
2022/04/30 03:38:43;;;;;;;;;31.50;28.75;;;;;;;;5055170;28;45584;-70
2022/04/30 03:41:08;;;;;;;;;35.50;31.75;;;;;;;;5053786;28;45296;-70
2022/04/30 03:43:33;;;;;;;;;37.25;33.00;;;;;;;;5053532;28;45523;-70
2022/04/30 03:45:58;;;;;;;;;42.25;34.75;;;;;;;;5053321;28;45384;-70
2022/04/30 03:48:24;;;;;;;;;37.25;32.25;;;;;;;;5053486;28;45652;-69
2022/04/30 03:50:49;;;;;;;;;34.75;29.50;;;;;;;;5056070;28;45222;-69
2022/04/30 03:53:14;;;;;;;;;36.50;31.00;;;;;;;;5052976;28;45217;-70
2022/04/30 03:55:40;;;;;;;;;34.50;31.00;;;;;;;;5053211;28;47282;-70
2022/04/30 03:58:05;;;;;;;;;35.50;32.00;;;;;;;;5053060;28;45396;-69
2022/04/30 04:00:30;;;;;;;;;37.00;31.75;;;;;;;;5053780;28;45400;-69
2022/04/30 04:02:56;;;;;;;;;35.75;32.25;;;;;;;;5055637;28;45395;-71
2022/04/30 04:05:21;;;;;;;;;31.75;29.75;;;;;;;;5053254;28;45922;-71
2022/04/30 04:07:46;;;;;;;;;35.00;29.75;;;;;;;;5052938;28;45367;-70
2022/04/30 04:10:12;;;;;;;;;41.75;33.75;;;;;;;;5053259;28;45564;-70
2022/04/30 04:12:38;;;;;;;;;38.50;34.00;;;;;;;;5053258;28;45638;-71
2022/04/30 04:17:48;;;;;;;;;39.25;33.00;;;;;;;;5054432;28;45411;-70
2022/04/30 04:20:13;;;;;;;;;41.00;33.75;;;;;;;;5053158;28;47421;-70
2022/04/30 04:22:39;;;;;;;;;46.00;36.00;;;;;;;;5052727;28;45358;-70
2022/04/30 04:27:53;;;;;;;;;37.25;33.25;;;;;;;;5052977;28;45391;-69
2022/04/30 04:30:19;;;;;;;;;47.25;35.25;;;;;;;;5051859;28;45542;-70
2022/04/30 04:32:44;;;;;;;;;38.25;30.50;;;;;;;;5054778;28;45442;-70
2022/04/30 04:35:10;;;;;;;;;31.25;29.00;;;;;;;;5038648;28;47330;-70
2022/04/30 04:37:35;;;;;;;;;47.00;35.25;;;;;;;;5052559;28;45376;-70
2022/04/30 04:40:00;;;;;;;;;40.00;33.25;;;;;;;;5052417;28;45499;-70
2022/04/30 04:42:25;;;;;;;;;32.00;30.75;;;;;;;;5052742;28;45434;-70
2022/04/30 04:44:51;;;;;;;;;38.25;30.75;;;;;;;;5054528;28;46868;-70
2022/04/30 04:47:16;;;;;;;;;40.00;32.50;;;;;;;;5052347;28;46509;-70
2022/04/30 04:49:42;;;;;;;;;36.00;32.50;;;;;;;;5052056;28;45436;-69
2022/04/30 04:52:10;;;;;;;;;43.50;35.50;;;;;;;;5052437;28;45612;-69
2022/04/30 04:54:35;;;;;;;;;35.25;30.00;;;;;;;;5052338;28;46233;-69
2022/04/30 04:57:00;;;;;;;;;43.00;34.25;;;;;;;;5053779;28;45353;-69
2022/04/30 04:59:26;;;;;;;;;47.25;36.25;;;;;;;;5052702;28;45488;-69
2022/04/30 05:01:51;;;;;;;;;38.50;33.25;;;;;;;;5051896;28;45422;-69
2022/04/30 05:04:16;;;;;;;;;39.75;33.25;;;;;;;;5051787;28;45474;-70
2022/04/30 05:06:42;;;;;;;;;38.75;32.00;;;;;;;;5052075;28;45856;-69
2022/04/30 05:09:07;;;;;;;;;41.25;35.00;;;;;;;;5053178;28;45313;-70
2022/04/30 05:11:32;;;;;;;;;42.25;34.00;;;;;;;;5054001;28;45269;-70
2022/04/30 05:13:58;;;;;;;;;42.00;34.50;;;;;;;;5051913;28;46372;-70
2022/04/30 05:16:24;;;;;;;;;40.00;34.00;;;;;;;;5053304;28;45212;-70
2022/04/30 05:18:49;;;;;;;;;38.00;34.50;;;;;;;;5052350;28;45316;-70
2022/04/30 05:21:14;;;;;;;;;41.25;33.50;;;;;;;;5052364;28;45280;-70
2022/04/30 05:23:39;;;;;;;;;44.75;36.75;;;;;;;;5054135;28;45385;-69
2022/04/30 05:26:04;;;;;;;;;46.50;37.50;;;;;;;;5051898;28;45291;-71
2022/04/30 05:28:29;;;;;;;;;39.25;33.25;;;;;;;;5051807;28;45400;-70
2022/04/30 05:30:55;;;;;;;;;40.50;33.25;;;;;;;;5052150;28;45476;-70
2022/04/30 05:33:20;;;;;;;;;44.25;35.25;;;;;;;;5051883;28;45490;-70
2022/04/30 05:35:45;;;;;;;;;42.25;34.50;;;;;;;;5040276;28;45444;-70
2022/04/30 05:38:10;;;;;;;;;55.00;43.25;;;;;;;;5051832;28;45300;-70
2022/04/30 05:40:35;;;;;;;;;41.25;36.00;;;;;;;;5051396;28;45523;-70
2022/04/30 05:43:01;;;;;;;;;37.00;32.50;;;;;;;;5054671;28;45634;-70
2022/04/30 05:45:26;;;;;;;;;46.00;36.25;;;;;;;;5055398;28;45419;-70
2022/04/30 05:47:52;;;;;;;;;46.25;38.75;;;;;;;;5057156;28;45402;-70
2022/04/30 05:50:17;;;;;;;;;45.00;34.75;;;;;;;;5054965;28;45639;-70
2022/04/30 05:52:42;;;;;;;;;41.25;31.75;;;;;;;;5055082;28;46221;-70
2022/04/30 05:55:07;;;;;;;;;37.25;34.00;;;;;;;;5053857;28;45365;-71
2022/04/30 05:57:33;;;;;;;;;43.25;34.50;;;;;;;;5054718;28;45584;-71
2022/04/30 05:59:59;;;;;;;;;32.00;31.00;;;;;;;;5056050;28;45482;-70
2022/04/30 06:02:24;;;;;;;;;46.50;36.25;;;;;;;;5054645;28;45970;-70
2022/04/30 06:04:49;;;;;;;;;40.00;33.75;;;;;;;;5054438;28;45556;-70
2022/04/30 06:07:15;;;;;;;;;39.75;34.75;;;;;;;;5055018;28;45477;-70
2022/04/30 06:09:40;;;;;;;;;37.00;32.25;;;;;;;;5036770;28;45584;-70
2022/04/30 06:12:05;;;;;;;;;38.75;32.00;;;;;;;;5053574;28;48418;-70
2022/04/30 06:14:31;;;;;;;;;43.00;36.00;;;;;;;;5056062;28;45423;-70
2022/04/30 06:16:57;;;;;;;;;45.50;36.50;;;;;;;;5054410;28;45403;-70
2022/04/30 06:19:23;;;;;;;;;40.75;33.50;;;;;;;;5054949;28;45447;-70
2022/04/30 06:21:48;;;;;;;;;38.75;30.75;;;;;;;;5054035;28;46144;-70
2022/04/30 06:24:14;;;;;;;;;34.50;30.25;;;;;;;;5054683;28;45300;-72
2022/04/30 06:26:39;;;;;;;;;39.25;32.50;;;;;;;;5056718;28;45301;-70
2022/04/30 06:29:05;;;;;;;;;43.25;34.25;;;;;;;;5054740;28;45390;-70
2022/04/30 06:31:30;;;;;;;;;42.50;34.25;;;;;;;;5053308;28;47098;-69
2022/04/30 06:33:56;;;;;;;;;37.50;33.00;;;;;;;;5054398;28;45518;-69
2022/04/30 06:36:22;;;;;;;;;34.50;29.75;;;;;;;;5052951;28;45583;-70
2022/04/30 06:38:47;;;;;;;;;38.75;35.00;;;;;;;;5056708;28;45578;-69
2022/04/30 06:41:13;;;;;;;;;40.00;33.25;;;;;;;;5054254;28;46307;-69
2022/04/30 06:43:38;;;;;;;;;41.50;32.00;;;;;;;;5053950;28;45303;-69
2022/04/30 06:46:04;;;;;;;;;41.00;34.00;;;;;;;;5053890;28;45338;-69
2022/04/30 06:48:30;;;;;;;;;42.25;35.50;;;;;;;;5053964;28;45513;-68
2022/04/30 06:50:55;;;;;;;;;43.50;34.75;;;;;;;;5056260;28;46616;-76
2022/04/30 06:58:54;;;;;;;;;42.75;37.00;;;;;;;;5053832;28;45462;-72
2022/04/30 07:01:37;;;;;;;;;40.50;33.75;;;;;;;;5052868;28;46372;-72
2022/04/30 07:04:04;;;;;;;;;34.50;32.25;;;;;;;;5053369;28;45297;-71
2022/04/30 07:06:30;;;;;;;;;44.25;33.75;;;;;;;;5053984;28;45249;-72
2022/04/30 07:08:55;;;;;;;;;35.75;30.25;;;;;;;;5055639;28;45226;-70
2022/04/30 07:11:20;;;;;;;;;34.50;32.50;;;;;;;;5053033;28;46742;-69
2022/04/30 07:13:46;;;;;;;;;33.00;30.50;;;;;;;;5053543;28;45333;-69
2022/04/30 07:16:11;;;;;;;;;37.25;32.25;;;;;;;;5051893;28;45551;-69
2022/04/30 07:18:36;;;;;;;;;37.25;30.25;;;;;;;;5053296;28;45388;-69
2022/04/30 07:21:01;;;;;;;;;35.00;29.25;;;;;;;;5055218;28;45544;-69
2022/04/30 07:23:27;;;;;;;;;32.50;29.00;;;;;;;;5054410;28;45432;-70
2022/04/30 07:25:52;;;;;;;;;34.25;29.25;;;;;;;;5053483;28;45719;-69
2022/04/30 07:28:17;;;;;;;;;35.00;32.75;;;;;;;;5053543;28;45329;-69
2022/04/30 07:30:42;;;;;;;;;40.75;32.75;;;;;;;;5052265;28;46098;-70
2022/04/30 07:33:08;;;;;;;;;31.75;30.00;;;;;;;;5053712;28;45375;-71
2022/04/30 07:35:33;;;;;;;;;29.50;26.75;;;;;;;;5054754;28;45854;-69
2022/04/30 07:37:58;;;;;;;;;32.00;29.00;;;;;;;;5053202;28;45422;-69
2022/04/30 07:40:24;;;;;;;;;37.75;31.25;;;;;;;;5052941;28;46108;-68
2022/04/30 07:42:50;;;;;;;;;35.50;29.25;;;;;;;;5053473;28;45522;-71
2022/04/30 07:45:15;;;;;;;;;31.50;28.50;;;;;;;;5053344;28;45467;-71
2022/04/30 07:47:40;;;;;;;;;31.25;28.50;;;;;;;;5054553;28;45537;-70
2022/04/30 07:50:06;;;;;;;;;37.75;32.25;;;;;;;;5052857;28;45568;-71
2022/04/30 07:52:32;;;;;;;;;37.25;30.75;;;;;;;;5052937;28;45655;-71
2022/04/30 07:54:57;;;;;;;;;30.75;28.00;;;;;;;;5050701;28;46888;-71
2022/04/30 07:57:22;;;;;;;;;38.25;30.00;;;;;;;;5052662;28;45391;-71
2022/04/30 07:59:47;;;;;;;;;34.00;30.00;;;;;;;;5062792;27;46507;-70
2022/04/30 08:02:13;;;;;;;;;36.25;29.25;;;;;;;;5053898;28;45376;-71
2022/04/30 08:04:38;;;;;;;;;37.00;31.25;;;;;;;;5052398;28;45406;-70
2022/04/30 08:07:04;;;;;;;;;30.00;27.50;;;;;;;;5052017;28;45586;-70
2022/04/30 08:09:29;;;;;;;;;33.50;28.00;;;;;;;;5055662;28;47084;-70
2022/04/30 08:11:54;;;;;;;;;35.00;29.50;;;;;;;;5065813;27;45447;-70
2022/04/30 08:14:19;;;;;;;;;30.50;25.50;;;;;;;;5056913;28;45590;-69
2022/04/30 08:16:44;;;;;;;;;28.50;26.25;;;;;;;;5052172;28;45352;-71
2022/04/30 08:19:10;;;;;;;;;32.75;28.75;;;;;;;;5052424;28;46479;-69
2022/04/30 08:21:35;;;;;;;;;27.00;25.75;;;;;;;;5051462;28;45374;-70
2022/04/30 08:24:00;;;;;;;;;31.75;27.75;;;;;;;;5053884;28;45312;-70
2022/04/30 08:26:26;;;;;;;;;27.75;25.50;;;;;;;;5053075;28;45489;-70
2022/04/30 08:28:51;;;;;;;;;26.50;26.25;;;;;;;;5052043;28;46079;-70
2022/04/30 08:31:18;;;;;;;;;22.25;17.75;;;;;;;;5052195;28;45522;-70
2022/04/30 08:33:43;;;;;;;;;26.25;23.50;;;;;;;;5052652;28;45844;-70
2022/04/30 08:36:08;;;;;;;;;23.00;18.25;;;;;;;;5053184;28;45517;-70
2022/04/30 08:38:33;;;;;;;;;27.00;20.75;;;;;;;;5054012;28;46278;-70
2022/04/30 08:40:59;;;;;;;;;33.00;27.75;;;;;;;;5052395;28;45343;-71
2022/04/30 08:43:26;;;;;;;;;19.75;19.75;;;;;;;;5051859;28;45458;-71
2022/04/30 08:45:51;;;;;;;;;27.25;25.75;;;;;;;;5052243;28;45532;-70
2022/04/30 08:48:17;;;;;;;;;28.25;27.25;;;;;;;;5052347;28;46352;-72
2022/04/30 08:50:43;;;;;;;;;27.00;22.50;;;;;;;;5054967;28;45314;-71
2022/04/30 08:53:09;;;;;;;;;29.50;28.75;;;;;;;;5052278;28;45320;-71
2022/04/30 08:55:34;;;;;;;;;26.75;24.75;;;;;;;;5051889;28;45385;-71
2022/04/30 08:58:00;;;;;;;;;23.00;19.25;;;;;;;;5051514;28;45850;-71
2022/04/30 09:00:25;;;;;;;;;23.00;22.25;;;;;;;;5035981;28;45501;-71
2022/04/30 09:02:51;;;;;;;;;27.50;24.25;;;;;;;;5054615;28;45888;-72
2022/04/30 09:05:17;;;;;;;;;21.75;21.50;;;;;;;;5051677;28;45339;-71
2022/04/30 09:07:51;;;;;;;;;26.75;22.25;;;;;;;;5051461;28;47197;-71
2022/04/30 09:10:21;;;;;;;;;28.50;25.00;;;;;;;;5051545;28;45306;-71
2022/04/30 09:12:47;;;;;;;;;22.25;16.50;;;;;;;;5051961;28;45278;-71
2022/04/30 09:15:15;;;;;;;;;23.00;18.50;;;;;;;;5051864;28;45361;-69
2022/04/30 09:17:40;;;;;;;;;17.50;16.75;;;;;;;;5055763;28;46196;-72
2022/04/30 09:20:06;;;;;;;;;20.50;18.50;;;;;;;;5055255;28;45486;-71
2022/04/30 09:22:33;;;;;;;;;17.25;15.25;;;;;;;;5055100;28;45418;-71
2022/04/30 09:24:59;;;;;;;;;19.25;17.50;;;;;;;;5055264;28;45241;-71
2022/04/30 09:27:25;;;;;;;;;18.50;16.75;;;;;;;;5055293;28;45654;-71
2022/04/30 09:29:50;;;;;;;;;18.50;16.75;;;;;;;;5056729;28;45597;-71
2022/04/30 09:32:19;;;;;;;;;18.75;17.25;;;;;;;;5055328;28;45611;-71
2022/04/30 09:37:41;;;;;;;;;15.50;13.00;;;;;;;;5054859;28;45524;-70
2022/04/30 09:40:19;;;;;;;;;14.25;14.00;;;;;;;;5054837;28;45440;-70
2022/04/30 09:42:48;;;;;;;;;18.50;14.25;;;;;;;;5055046;28;45402;-71
2022/04/30 09:45:24;;;;;;;;;21.50;20.25;;;;;;;;5054591;28;45343;-71
2022/04/30 09:47:50;;;;;;;;;18.25;14.25;;;;;;;;5056646;28;45474;-72
2022/04/30 09:55:50;;;;;;;;;15.75;14.25;;;;;;;;5053962;28;45277;-71
2022/04/30 09:58:20;;;;;;;;;12.25;11.25;;;;;;;;5053680;28;45461;-71
2022/04/30 10:00:46;;;;;;;;;14.75;13.25;;;;;;;;5054181;28;45423;-71
2022/04/30 10:03:15;;;;;;;;;16.00;14.75;;;;;;;;5054690;28;45370;-71
2022/04/30 10:05:42;;;;;;;;;11.25;10.00;;;;;;;;5055249;28;45487;-71
2022/04/30 10:08:08;;;;;;;;;16.00;13.50;;;;;;;;5054430;28;46153;-71
2022/04/30 10:10:38;;;;;;;;;17.50;13.50;;;;;;;;5053876;28;45413;-71
2022/04/30 10:13:15;;;;;;;;;17.50;13.00;;;;;;;;5054752;28;45462;-72
2022/04/30 10:15:51;;;;;;;;;9.50;8.75;;;;;;;;5034817;28;45632;-72
2022/04/30 10:18:18;;;;;;;;;13.75;12.00;;;;;;;;5054046;28;46308;-71
2022/04/30 10:20:49;;;;;;;;;13.50;12.25;;;;;;;;5055630;28;45269;-70
2022/04/30 10:23:16;;;;;;;;;13.50;12.75;;;;;;;;5053678;28;45427;-71
2022/04/30 10:25:41;;;;;;;;;16.50;13.75;;;;;;;;5053905;28;45468;-71
2022/04/30 10:28:15;;;;;;;;;15.25;14.50;;;;;;;;5052528;28;46244;-70
2022/04/30 10:30:42;;;;;;;;;17.25;13.50;;;;;;;;5054429;28;45490;-70
2022/04/30 10:33:08;;;;;;;;;11.00;11.00;;;;;;;;5054699;28;45230;-71
2022/04/30 10:35:37;;;;;;;;;15.25;13.75;;;;;;;;5055688;28;45550;-72
2022/04/30 10:38:08;;;;;;;;;14.00;12.50;;;;;;;;5053529;28;46155;-72
2022/04/30 10:40:40;;;;;;;;;10.50;10.50;;;;;;;;5053606;28;45594;-72
2022/04/30 10:43:15;;;;;;;;;13.50;11.00;;;;;;;;5053964;28;45444;-72
2022/04/30 10:45:40;;;;;;;;;14.75;13.75;;;;;;;;5053833;28;45610;-72
2022/04/30 10:48:06;;;;;;;;;14.50;13.00;;;;;;;;5054814;28;47261;-71
2022/04/30 10:50:31;;;;;;;;;11.75;11.75;;;;;;;;5055179;28;45594;-71
2022/04/30 10:52:56;;;;;;;;;13.50;12.50;;;;;;;;5053576;28;45543;-71
2022/04/30 10:55:22;;;;;;;;;11.75;10.25;;;;;;;;5053504;28;45577;-71
2022/04/30 10:57:48;;;;;;;;;12.00;12.00;;;;;;;;5053459;28;46105;-72
2022/04/30 11:00:14;;;;;;;;;13.00;11.75;;;;;;;;5053629;28;45343;-72
2022/04/30 11:02:40;;;;;;;;;7.75;7.50;;;;;;;;5055493;28;45545;-71
2022/04/30 11:05:05;;;;;;;;;10.25;8.00;;;;;;;;5053450;28;45357;-70
2022/04/30 11:07:31;;;;;;;;;17.00;14.00;;;;;;;;5052775;28;45639;-72
2022/04/30 11:09:57;;;;;;;;;9.50;9.50;;;;;;;;5053696;28;45545;-72
2022/04/30 11:12:31;;;;;;;;;8.00;8.00;;;;;;;;5053692;28;45426;-71
2022/04/30 11:14:57;;;;;;;;;8.50;8.00;;;;;;;;5051866;28;45454;-71
2022/04/30 11:17:23;;;;;;;;;13.00;11.00;;;;;;;;5051914;28;46093;-72
2022/04/30 11:19:48;;;;;;;;;9.50;7.25;;;;;;;;5053019;28;45455;-72
2022/04/30 11:22:14;;;;;;;;;10.50;8.25;;;;;;;;5053249;28;45336;-70
2022/04/30 11:24:41;;;;;;;;;9.75;6.50;;;;;;;;5053317;28;45364;-70
2022/04/30 11:27:10;;;;;;;;;9.00;8.75;;;;;;;;5054200;28;46959;-72
2022/04/30 11:29:36;;;;;;;;;9.50;6.50;;;;;;;;5054813;28;45432;-71
2022/04/30 11:32:03;;;;;;;;;8.00;8.00;;;;;;;;5053053;28;45406;-72
2022/04/30 11:34:28;;;;;;;;;5.50;5.00;;;;;;;;5053374;28;45585;-72
2022/04/30 11:36:54;;;;;;;;;8.50;8.50;;;;;;;;5052657;28;46241;-72
2022/04/30 11:39:21;;;;;;;;;7.00;7.00;;;;;;;;5052804;28;45262;-71
2022/04/30 11:41:48;;;;;;;;;4.25;4.25;;;;;;;;5055529;28;45302;-71
2022/04/30 11:44:14;;;;;;;;;3.00;3.00;;;;;;;;5052760;28;45240;-72
2022/04/30 11:46:40;;;;;;;;;5.00;4.00;;;;;;;;5052447;28;46303;-72
2022/04/30 11:49:09;;;;;;;;;4.50;4.50;;;;;;;;5052700;28;45229;-72
2022/04/30 11:51:34;;;;;;;;;9.25;5.00;;;;;;;;5052851;28;45590;-72
2022/04/30 11:54:01;;;;;;;;;5.25;5.25;;;;;;;;5053976;28;45326;-72
2022/04/30 11:56:26;;;;;;;;;3.00;2.50;;;;;;;;5051593;28;46409;-72
2022/04/30 11:58:51;;;;;;;;;5.00;4.50;;;;;;;;5052436;28;45404;-72
2022/04/30 12:01:21;;;;;;;;;6.50;5.75;;;;;;;;5052580;28;45527;-72
2022/04/30 12:03:51;;;;;;;;;9.00;5.50;;;;;;;;5052623;28;45396;-72
2022/04/30 12:06:18;;;;;;;;;3.00;3.00;;;;;;;;5051762;28;46498;-72
2022/04/30 12:08:43;;;;;;;;;4.75;4.75;;;;;;;;5054259;28;45231;-72
2022/04/30 12:11:09;;;;;;;;;4.00;4.00;;;;;;;;5052313;28;45522;-72
2022/04/30 12:13:34;;;;;;;;;5.00;5.00;;;;;;;;5052651;28;45264;-72
2022/04/30 12:16:06;;;;;;;;;4.33;4.33;;;;;;;;5052246;28;47336;-72
2022/04/30 12:26:55;;;;;;;;;3.67;2.67;;;;;;;;5052770;28;46048;-72
2022/04/30 12:29:21;;;;;;;;;4.67;4.67;;;;;;;;5051493;28;45319;-73
2022/04/30 12:31:47;;;;;;;;;5.50;5.50;;;;;;;;5052057;28;45374;-73
2022/04/30 12:34:19;;;;;;;;;4.67;4.67;;;;;;;;5051893;28;45896;-73
2022/04/30 12:36:55;;;;;;;;;4.00;4.00;;;;;;;;5051746;28;46419;-73
2022/04/30 12:39:22;;;;;;;;;6.33;5.67;;;;;;;;5051932;28;45265;-73
2022/04/30 12:41:47;;;;;;;;;5.67;4.00;;;;;;;;5053807;28;45550;-73
2022/04/30 12:44:12;;;;;;;;;4.50;4.50;;;;;;;;5051975;28;45462;-73
2022/04/30 12:46:41;;;;;;;;;3.67;3.67;;;;;;;;5051794;28;45424;-72
2022/04/30 12:49:06;;;;;;;;;5.00;3.67;;;;;;;;5051351;28;45620;-73
2022/04/30 12:51:32;;;;;;;;;4.00;4.00;;;;;;;;5052857;28;45331;-72
2022/04/30 12:53:57;;;;;;;;;4.00;3.00;;;;;;;;5057274;28;45421;-71
2022/04/30 12:56:24;;;;;;;;;5.00;4.00;;;;;;;;5053590;28;46833;-71
2022/04/30 12:58:49;;;;;;;;;6.00;4.00;;;;;;;;5055218;28;45455;-72
2022/04/30 13:01:14;;;;;;;;;5.00;3.00;;;;;;;;5054565;28;45922;-72
2022/04/30 13:03:40;;;;;;;;;3.00;3.00;;;;;;;;5055181;28;45474;-72
2022/04/30 13:06:06;;;;;;;;;3.50;3.50;;;;;;;;5056066;28;45558;-72
2022/04/30 13:13:59;;;;;;;;;5.00;5.00;;;;;;;;5055052;28;45382;-71
2022/04/30 13:16:24;;;;;;;;;3.67;3.67;;;;;;;;5054924;28;46380;-71
2022/04/30 13:18:49;;;;;;;;;2.67;2.67;;;;;;;;5054939;28;45499;-72
2022/04/30 13:21:14;;;;;;;;;4.00;4.00;;;;;;;;5055158;28;45490;-71
2022/04/30 13:23:40;;;;;;;;;2.33;2.33;;;;;;;;5056580;28;45559;-71
2022/04/30 13:26:05;;;;;;;;;4.75;4.00;;;;;;;;5054939;28;45498;-72
2022/04/30 13:28:31;;;;;;;;;2.67;2.67;;;;;;;;5055245;28;45613;-71
2022/04/30 13:30:56;;;;;;;;;5.75;5.75;;;;;;;;5037995;28;45313;-72
2022/04/30 13:33:22;;;;;;;;;5.25;3.75;;;;;;;;5054785;28;45700;-71
2022/04/30 13:35:47;;;;;;;;;3.50;3.50;;;;;;;;5059204;28;45471;-70
2022/04/30 13:38:12;;;;;;;;;6.00;3.25;;;;;;;;5056787;28;45285;-71
2022/04/30 13:40:38;;;;;;;;;5.25;4.25;;;;;;;;5056152;28;45517;-72
2022/04/30 13:43:03;;;;;;;;;2.00;2.00;;;;;;;;5054247;28;45597;-75
2022/04/30 13:45:28;;;;;;;;;3.00;2.50;;;;;;;;5054473;28;45336;-73
2022/04/30 13:47:53;;;;;;;;;3.33;3.33;;;;;;;;5056136;28;45340;-72
2022/04/30 13:50:19;;;;;;;;;4.25;3.25;;;;;;;;5054745;28;45378;-71
2022/04/30 13:52:45;;;;;;;;;4.33;4.33;;;;;;;;5054919;28;45402;-72
2022/04/30 13:55:12;;;;;;;;;2.67;2.67;;;;;;;;5054127;28;46390;-74
2022/04/30 13:57:38;;;;;;;;;2.75;2.50;;;;;;;;5062964;27;45462;-74
2022/04/30 14:00:05;;;;;;;;;2.50;2.50;;;;;;;;5060204;27;45371;-75
2022/04/30 14:02:30;;;;;;;;;3.50;3.50;;;;;;;;5054834;28;45527;-74
2022/04/30 14:04:56;;;;;;;;;4.75;3.75;;;;;;;;5054213;28;45507;-73
2022/04/30 14:07:21;;;;;;;;;3.00;3.00;;;;;;;;5054349;28;45398;-73
2022/04/30 14:09:46;;;;;;;;;5.25;4.00;;;;;;;;5054020;28;45335;-71
2022/04/30 14:12:11;;;;;;;;;4.50;4.50;;;;;;;;5054642;28;45352;-72
2022/04/30 14:20:05;;;;;;;;;4.75;3.75;;;;;;;;5052262;28;45397;-73
2022/04/30 14:22:30;;;;;;;;;3.50;3.50;;;;;;;;5053738;28;45435;-73
2022/04/30 14:24:55;;;;;;;;;5.25;5.25;;;;;;;;5052717;28;46050;-73
2022/04/30 14:27:21;;;;;;;;;7.00;7.00;;;;;;;;5060792;27;45441;-70
2022/04/30 14:29:47;;;;;;;;;4.50;4.50;;;;;;;;5055263;28;45411;-72
2022/04/30 14:32:12;;;;;;;;;5.00;3.50;;;;;;;;5053795;28;45425;-72
2022/04/30 14:34:41;;;;;;;;;6.00;5.00;;;;;;;;5056048;28;46074;-72
2022/04/30 14:37:06;;;;;;;;;8.25;6.50;;;;;;;;5053577;28;45415;-72
2022/04/30 14:39:31;;;;;;;;;5.25;4.75;;;;;;;;5054230;28;45601;-72
2022/04/30 14:41:57;;;;;;;;;4.50;4.00;;;;;;;;5055174;28;45359;-72
2022/04/30 14:44:22;;;;;;;;;4.25;4.25;;;;;;;;5053252;28;45371;-72
2022/04/30 14:46:47;;;;;;;;;5.25;5.25;;;;;;;;5053514;28;45382;-71
2022/04/30 14:49:12;;;;;;;;;6.00;4.25;;;;;;;;5053829;28;45335;-71
2022/04/30 14:51:38;;;;;;;;;4.50;4.50;;;;;;;;5053232;28;45364;-71
2022/04/30 14:54:04;;;;;;;;;4.75;4.75;;;;;;;;5054725;28;45404;-73
2022/04/30 14:56:29;;;;;;;;;6.75;6.75;;;;;;;;5054123;28;45385;-73
2022/04/30 14:58:54;;;;;;;;;3.50;3.50;;;;;;;;5052912;28;45863;-72
2022/04/30 15:01:20;;;;;;;;;4.50;4.50;;;;;;;;5053517;28;45291;-72
2022/04/30 15:03:45;;;;;;;;;4.75;4.75;;;;;;;;5053481;28;46471;-72
2022/04/30 15:06:10;;;;;;;;;7.50;7.00;;;;;;;;5054063;28;45399;-72
2022/04/30 15:08:36;;;;;;;;;6.50;5.75;;;;;;;;5054826;28;45395;-72
2022/04/30 15:11:01;;;;;;;;;5.25;5.25;;;;;;;;5053090;28;45426;-73